sensor_id;sensor_type;location;lat;lon;timestamp;P1;durP1;ratioP1;P2;durP2;ratioP2
79526;SDS011;68974;47.754;-3.364;2023-08-07T00:00:43;5.43;;;2.07;;
79526;SDS011;68974;47.754;-3.364;2023-08-07T00:03:08;4.00;;;1.50;;
79526;SDS011;68974;47.754;-3.364;2023-08-07T00:05:34;4.40;;;1.95;;
79526;SDS011;68974;47.754;-3.364;2023-08-07T00:07:59;7.22;;;1.70;;
79526;SDS011;68974;47.754;-3.364;2023-08-07T00:10:25;7.65;;;1.85;;
79526;SDS011;68974;47.754;-3.364;2023-08-07T00:12:51;4.50;;;1.90;;
79526;SDS011;68974;47.754;-3.364;2023-08-07T00:15:16;7.30;;;1.65;;
79526;SDS011;68974;47.754;-3.364;2023-08-07T00:17:42;8.13;;;1.88;;
79526;SDS011;68974;47.754;-3.364;2023-08-07T00:20:07;7.53;;;2.00;;
79526;SDS011;68974;47.754;-3.364;2023-08-07T00:22:33;7.88;;;1.90;;
79526;SDS011;68974;47.754;-3.364;2023-08-07T00:24:58;3.83;;;1.77;;
79526;SDS011;68974;47.754;-3.364;2023-08-07T00:27:24;7.85;;;2.28;;
79526;SDS011;68974;47.754;-3.364;2023-08-07T00:29:49;2.78;;;1.88;;
79526;SDS011;68974;47.754;-3.364;2023-08-07T00:32:15;9.55;;;2.42;;
79526;SDS011;68974;47.754;-3.364;2023-08-07T00:34:40;9.23;;;1.90;;
79526;SDS011;68974;47.754;-3.364;2023-08-07T00:37:05;8.40;;;2.27;;
79526;SDS011;68974;47.754;-3.364;2023-08-07T00:39:31;7.82;;;2.00;;
79526;SDS011;68974;47.754;-3.364;2023-08-07T00:41:56;7.13;;;2.25;;
79526;SDS011;68974;47.754;-3.364;2023-08-07T00:44:21;8.83;;;1.97;;
79526;SDS011;68974;47.754;-3.364;2023-08-07T00:46:48;10.07;;;2.55;;
79526;SDS011;68974;47.754;-3.364;2023-08-07T00:49:14;9.88;;;2.25;;
79526;SDS011;68974;47.754;-3.364;2023-08-07T00:51:41;5.97;;;1.98;;
79526;SDS011;68974;47.754;-3.364;2023-08-07T00:54:07;8.70;;;2.20;;
79526;SDS011;68974;47.754;-3.364;2023-08-07T00:56:36;4.38;;;2.35;;
79526;SDS011;68974;47.754;-3.364;2023-08-07T00:59:02;7.00;;;2.05;;
79526;SDS011;68974;47.754;-3.364;2023-08-07T01:01:28;11.05;;;2.53;;
79526;SDS011;68974;47.754;-3.364;2023-08-07T01:03:54;7.70;;;2.67;;
79526;SDS011;68974;47.754;-3.364;2023-08-07T01:06:19;5.43;;;1.92;;
79526;SDS011;68974;47.754;-3.364;2023-08-07T01:08:45;6.20;;;2.00;;
79526;SDS011;68974;47.754;-3.364;2023-08-07T01:14:03;5.10;;;1.80;;
79526;SDS011;68974;47.754;-3.364;2023-08-07T01:16:56;4.40;;;2.03;;
79526;SDS011;68974;47.754;-3.364;2023-08-07T01:19:26;7.88;;;2.28;;
79526;SDS011;68974;47.754;-3.364;2023-08-07T01:24:30;4.07;;;2.00;;
79526;SDS011;68974;47.754;-3.364;2023-08-07T01:26:57;6.50;;;2.17;;
79526;SDS011;68974;47.754;-3.364;2023-08-07T01:29:30;9.15;;;2.30;;
79526;SDS011;68974;47.754;-3.364;2023-08-07T01:32:02;7.72;;;2.58;;
79526;SDS011;68974;47.754;-3.364;2023-08-07T01:34:31;8.20;;;2.22;;
79526;SDS011;68974;47.754;-3.364;2023-08-07T01:36:59;10.75;;;2.20;;
79526;SDS011;68974;47.754;-3.364;2023-08-07T01:39:27;7.97;;;2.20;;
79526;SDS011;68974;47.754;-3.364;2023-08-07T01:41:54;6.97;;;2.25;;
79526;SDS011;68974;47.754;-3.364;2023-08-07T01:44:20;4.53;;;2.40;;
79526;SDS011;68974;47.754;-3.364;2023-08-07T01:46:46;7.75;;;3.47;;
79526;SDS011;68974;47.754;-3.364;2023-08-07T01:49:11;8.63;;;2.92;;
79526;SDS011;68974;47.754;-3.364;2023-08-07T01:51:36;7.38;;;1.85;;
79526;SDS011;68974;47.754;-3.364;2023-08-07T01:54:02;7.70;;;2.30;;
79526;SDS011;68974;47.754;-3.364;2023-08-07T01:56:27;9.07;;;2.28;;
79526;SDS011;68974;47.754;-3.364;2023-08-07T01:58:53;9.10;;;2.60;;
79526;SDS011;68974;47.754;-3.364;2023-08-07T02:01:18;9.27;;;2.63;;
79526;SDS011;68974;47.754;-3.364;2023-08-07T02:03:43;10.70;;;3.22;;
79526;SDS011;68974;47.754;-3.364;2023-08-07T02:06:09;7.47;;;2.43;;
79526;SDS011;68974;47.754;-3.364;2023-08-07T02:08:34;5.85;;;1.98;;
79526;SDS011;68974;47.754;-3.364;2023-08-07T02:10:59;6.68;;;2.40;;
79526;SDS011;68974;47.754;-3.364;2023-08-07T02:13:26;6.15;;;1.92;;
79526;SDS011;68974;47.754;-3.364;2023-08-07T02:15:52;6.63;;;2.15;;
79526;SDS011;68974;47.754;-3.364;2023-08-07T02:18:17;6.55;;;2.20;;
79526;SDS011;68974;47.754;-3.364;2023-08-07T02:20:42;3.35;;;2.10;;
79526;SDS011;68974;47.754;-3.364;2023-08-07T02:23:08;10.15;;;2.63;;
79526;SDS011;68974;47.754;-3.364;2023-08-07T02:25:34;8.50;;;3.67;;
79526;SDS011;68974;47.754;-3.364;2023-08-07T02:27:59;7.75;;;2.45;;
79526;SDS011;68974;47.754;-3.364;2023-08-07T02:30:24;6.05;;;2.70;;
79526;SDS011;68974;47.754;-3.364;2023-08-07T02:32:50;9.05;;;2.40;;
79526;SDS011;68974;47.754;-3.364;2023-08-07T02:35:15;7.10;;;2.55;;
79526;SDS011;68974;47.754;-3.364;2023-08-07T02:37:41;9.02;;;2.33;;
79526;SDS011;68974;47.754;-3.364;2023-08-07T02:40:06;9.27;;;2.28;;
79526;SDS011;68974;47.754;-3.364;2023-08-07T02:42:32;7.20;;;3.20;;
79526;SDS011;68974;47.754;-3.364;2023-08-07T02:44:58;6.32;;;3.10;;
79526;SDS011;68974;47.754;-3.364;2023-08-07T02:47:23;6.80;;;2.80;;
79526;SDS011;68974;47.754;-3.364;2023-08-07T02:49:49;7.88;;;2.65;;
79526;SDS011;68974;47.754;-3.364;2023-08-07T02:52:14;6.03;;;3.00;;
79526;SDS011;68974;47.754;-3.364;2023-08-07T02:54:39;10.05;;;3.47;;
79526;SDS011;68974;47.754;-3.364;2023-08-07T02:57:05;5.32;;;3.10;;
79526;SDS011;68974;47.754;-3.364;2023-08-07T02:59:30;8.48;;;3.08;;
79526;SDS011;68974;47.754;-3.364;2023-08-07T03:01:56;5.82;;;2.83;;
79526;SDS011;68974;47.754;-3.364;2023-08-07T03:04:21;12.68;;;3.85;;
79526;SDS011;68974;47.754;-3.364;2023-08-07T03:06:46;8.57;;;3.75;;
79526;SDS011;68974;47.754;-3.364;2023-08-07T03:09:12;8.25;;;3.28;;
79526;SDS011;68974;47.754;-3.364;2023-08-07T03:11:37;7.13;;;3.65;;
79526;SDS011;68974;47.754;-3.364;2023-08-07T03:14:02;10.80;;;3.40;;
79526;SDS011;68974;47.754;-3.364;2023-08-07T03:16:28;8.02;;;3.47;;
79526;SDS011;68974;47.754;-3.364;2023-08-07T03:18:53;8.05;;;3.78;;
79526;SDS011;68974;47.754;-3.364;2023-08-07T03:21:19;12.73;;;3.90;;
79526;SDS011;68974;47.754;-3.364;2023-08-07T03:23:44;7.38;;;3.28;;
79526;SDS011;68974;47.754;-3.364;2023-08-07T03:26:10;9.23;;;3.42;;
79526;SDS011;68974;47.754;-3.364;2023-08-07T03:28:37;6.60;;;3.58;;
79526;SDS011;68974;47.754;-3.364;2023-08-07T03:31:02;5.18;;;3.17;;
79526;SDS011;68974;47.754;-3.364;2023-08-07T03:33:28;11.65;;;4.03;;
79526;SDS011;68974;47.754;-3.364;2023-08-07T03:35:54;10.23;;;3.22;;
79526;SDS011;68974;47.754;-3.364;2023-08-07T03:38:19;8.60;;;3.50;;
79526;SDS011;68974;47.754;-3.364;2023-08-07T03:40:45;9.65;;;3.75;;
79526;SDS011;68974;47.754;-3.364;2023-08-07T03:43:10;8.52;;;3.80;;
79526;SDS011;68974;47.754;-3.364;2023-08-07T03:45:36;9.02;;;3.42;;
79526;SDS011;68974;47.754;-3.364;2023-08-07T03:48:01;6.97;;;3.03;;
79526;SDS011;68974;47.754;-3.364;2023-08-07T03:50:27;8.82;;;3.45;;
79526;SDS011;68974;47.754;-3.364;2023-08-07T03:52:52;11.18;;;3.30;;
79526;SDS011;68974;47.754;-3.364;2023-08-07T03:55:18;8.23;;;3.72;;
79526;SDS011;68974;47.754;-3.364;2023-08-07T03:57:43;6.25;;;3.20;;
79526;SDS011;68974;47.754;-3.364;2023-08-07T04:00:09;8.68;;;3.13;;
79526;SDS011;68974;47.754;-3.364;2023-08-07T04:02:35;8.18;;;3.13;;
79526;SDS011;68974;47.754;-3.364;2023-08-07T04:05:00;10.38;;;3.40;;
79526;SDS011;68974;47.754;-3.364;2023-08-07T04:07:26;5.03;;;2.78;;
79526;SDS011;68974;47.754;-3.364;2023-08-07T04:09:51;6.95;;;3.13;;
79526;SDS011;68974;47.754;-3.364;2023-08-07T04:12:16;9.27;;;3.45;;
79526;SDS011;68974;47.754;-3.364;2023-08-07T04:14:45;7.43;;;4.00;;
79526;SDS011;68974;47.754;-3.364;2023-08-07T04:17:10;7.13;;;4.00;;
79526;SDS011;68974;47.754;-3.364;2023-08-07T04:19:36;9.93;;;3.58;;
79526;SDS011;68974;47.754;-3.364;2023-08-07T04:22:01;11.43;;;5.05;;
79526;SDS011;68974;47.754;-3.364;2023-08-07T04:24:27;7.00;;;3.40;;
79526;SDS011;68974;47.754;-3.364;2023-08-07T04:26:52;8.57;;;3.47;;
79526;SDS011;68974;47.754;-3.364;2023-08-07T04:29:18;6.45;;;3.72;;
79526;SDS011;68974;47.754;-3.364;2023-08-07T04:31:43;9.38;;;3.75;;
79526;SDS011;68974;47.754;-3.364;2023-08-07T04:34:09;6.03;;;3.00;;
79526;SDS011;68974;47.754;-3.364;2023-08-07T04:36:34;6.10;;;3.40;;
79526;SDS011;68974;47.754;-3.364;2023-08-07T04:38:59;8.40;;;4.13;;
79526;SDS011;68974;47.754;-3.364;2023-08-07T04:41:25;10.43;;;4.88;;
79526;SDS011;68974;47.754;-3.364;2023-08-07T04:43:50;7.50;;;4.25;;
79526;SDS011;68974;47.754;-3.364;2023-08-07T04:46:16;10.00;;;3.80;;
79526;SDS011;68974;47.754;-3.364;2023-08-07T04:48:41;10.90;;;4.22;;
79526;SDS011;68974;47.754;-3.364;2023-08-07T04:51:06;7.32;;;3.45;;
79526;SDS011;68974;47.754;-3.364;2023-08-07T04:53:32;14.13;;;4.05;;
79526;SDS011;68974;47.754;-3.364;2023-08-07T04:55:59;8.77;;;3.80;;
79526;SDS011;68974;47.754;-3.364;2023-08-07T04:58:24;11.85;;;3.88;;
79526;SDS011;68974;47.754;-3.364;2023-08-07T05:00:54;7.97;;;3.50;;
79526;SDS011;68974;47.754;-3.364;2023-08-07T05:03:20;10.02;;;3.80;;
79526;SDS011;68974;47.754;-3.364;2023-08-07T05:05:46;8.18;;;3.65;;
79526;SDS011;68974;47.754;-3.364;2023-08-07T05:08:11;6.15;;;3.70;;
79526;SDS011;68974;47.754;-3.364;2023-08-07T05:10:37;9.43;;;3.42;;
79526;SDS011;68974;47.754;-3.364;2023-08-07T05:13:02;6.97;;;3.63;;
79526;SDS011;68974;47.754;-3.364;2023-08-07T05:15:27;6.57;;;3.13;;
79526;SDS011;68974;47.754;-3.364;2023-08-07T05:17:55;8.38;;;3.13;;
79526;SDS011;68974;47.754;-3.364;2023-08-07T05:20:22;8.48;;;3.20;;
79526;SDS011;68974;47.754;-3.364;2023-08-07T05:22:48;7.03;;;3.30;;
79526;SDS011;68974;47.754;-3.364;2023-08-07T05:25:14;9.55;;;4.00;;
79526;SDS011;68974;47.754;-3.364;2023-08-07T05:27:44;4.38;;;3.13;;
79526;SDS011;68974;47.754;-3.364;2023-08-07T05:30:09;10.77;;;3.30;;
79526;SDS011;68974;47.754;-3.364;2023-08-07T05:32:35;7.72;;;4.05;;
79526;SDS011;68974;47.754;-3.364;2023-08-07T05:35:04;5.20;;;3.13;;
79526;SDS011;68974;47.754;-3.364;2023-08-07T05:37:30;6.70;;;3.25;;
79526;SDS011;68974;47.754;-3.364;2023-08-07T05:39:56;8.55;;;3.45;;
79526;SDS011;68974;47.754;-3.364;2023-08-07T05:42:22;8.18;;;3.58;;
79526;SDS011;68974;47.754;-3.364;2023-08-07T05:44:48;12.68;;;4.22;;
79526;SDS011;68974;47.754;-3.364;2023-08-07T05:47:13;7.15;;;3.55;;
79526;SDS011;68974;47.754;-3.364;2023-08-07T05:49:39;8.93;;;3.05;;
79526;SDS011;68974;47.754;-3.364;2023-08-07T05:52:04;7.57;;;3.47;;
79526;SDS011;68974;47.754;-3.364;2023-08-07T05:54:31;12.20;;;4.20;;
79526;SDS011;68974;47.754;-3.364;2023-08-07T05:56:56;8.25;;;3.58;;
79526;SDS011;68974;47.754;-3.364;2023-08-07T05:59:21;5.88;;;3.10;;
79526;SDS011;68974;47.754;-3.364;2023-08-07T06:01:47;6.35;;;3.05;;
79526;SDS011;68974;47.754;-3.364;2023-08-07T06:04:12;8.05;;;3.38;;
79526;SDS011;68974;47.754;-3.364;2023-08-07T06:06:37;8.90;;;4.25;;
79526;SDS011;68974;47.754;-3.364;2023-08-07T06:09:04;7.43;;;3.35;;
79526;SDS011;68974;47.754;-3.364;2023-08-07T06:11:31;10.50;;;4.78;;
79526;SDS011;68974;47.754;-3.364;2023-08-07T06:13:57;6.70;;;3.55;;
79526;SDS011;68974;47.754;-3.364;2023-08-07T06:16:22;5.05;;;3.20;;
79526;SDS011;68974;47.754;-3.364;2023-08-07T06:18:48;7.97;;;3.65;;
79526;SDS011;68974;47.754;-3.364;2023-08-07T06:21:13;6.32;;;3.10;;
79526;SDS011;68974;47.754;-3.364;2023-08-07T06:23:38;9.37;;;2.93;;
79526;SDS011;68974;47.754;-3.364;2023-08-07T06:26:04;9.70;;;4.63;;
79526;SDS011;68974;47.754;-3.364;2023-08-07T06:28:32;6.05;;;2.95;;
79526;SDS011;68974;47.754;-3.364;2023-08-07T06:31:05;8.35;;;3.35;;
79526;SDS011;68974;47.754;-3.364;2023-08-07T06:35:58;5.15;;;2.70;;
79526;SDS011;68974;47.754;-3.364;2023-08-07T06:38:24;5.47;;;2.72;;
79526;SDS011;68974;47.754;-3.364;2023-08-07T06:40:50;7.07;;;2.85;;
79526;SDS011;68974;47.754;-3.364;2023-08-07T06:43:15;7.18;;;3.38;;
79526;SDS011;68974;47.754;-3.364;2023-08-07T06:45:41;6.47;;;2.97;;
79526;SDS011;68974;47.754;-3.364;2023-08-07T06:48:06;4.72;;;2.85;;
79526;SDS011;68974;47.754;-3.364;2023-08-07T06:50:32;8.00;;;3.17;;
79526;SDS011;68974;47.754;-3.364;2023-08-07T06:52:57;5.78;;;3.13;;
79526;SDS011;68974;47.754;-3.364;2023-08-07T06:55:22;8.90;;;3.25;;
79526;SDS011;68974;47.754;-3.364;2023-08-07T06:57:48;6.10;;;2.60;;
79526;SDS011;68974;47.754;-3.364;2023-08-07T07:00:13;4.93;;;3.00;;
79526;SDS011;68974;47.754;-3.364;2023-08-07T07:02:40;6.43;;;2.50;;
79526;SDS011;68974;47.754;-3.364;2023-08-07T07:05:05;5.90;;;3.13;;
79526;SDS011;68974;47.754;-3.364;2023-08-07T07:07:31;7.57;;;3.28;;
79526;SDS011;68974;47.754;-3.364;2023-08-07T07:09:56;8.52;;;3.78;;
79526;SDS011;68974;47.754;-3.364;2023-08-07T07:12:25;7.68;;;3.10;;
79526;SDS011;68974;47.754;-3.364;2023-08-07T07:14:51;5.63;;;3.85;;
79526;SDS011;68974;47.754;-3.364;2023-08-07T07:17:16;6.75;;;3.08;;
79526;SDS011;68974;47.754;-3.364;2023-08-07T07:19:42;11.43;;;3.63;;
79526;SDS011;68974;47.754;-3.364;2023-08-07T07:22:07;7.22;;;3.13;;
79526;SDS011;68974;47.754;-3.364;2023-08-07T07:24:32;8.80;;;3.50;;
79526;SDS011;68974;47.754;-3.364;2023-08-07T07:26:58;7.07;;;2.83;;
79526;SDS011;68974;47.754;-3.364;2023-08-07T07:29:23;8.10;;;2.78;;
79526;SDS011;68974;47.754;-3.364;2023-08-07T07:31:49;8.70;;;4.70;;
79526;SDS011;68974;47.754;-3.364;2023-08-07T07:34:15;6.38;;;4.57;;
79526;SDS011;68974;47.754;-3.364;2023-08-07T07:36:40;9.43;;;5.05;;
79526;SDS011;68974;47.754;-3.364;2023-08-07T07:39:06;7.70;;;4.13;;
79526;SDS011;68974;47.754;-3.364;2023-08-07T07:41:31;4.68;;;2.63;;
79526;SDS011;68974;47.754;-3.364;2023-08-07T07:43:57;8.25;;;2.63;;
79526;SDS011;68974;47.754;-3.364;2023-08-07T07:46:22;4.82;;;2.20;;
79526;SDS011;68974;47.754;-3.364;2023-08-07T07:48:49;4.10;;;2.28;;
79526;SDS011;68974;47.754;-3.364;2023-08-07T07:51:14;5.00;;;2.30;;
79526;SDS011;68974;47.754;-3.364;2023-08-07T07:53:40;6.55;;;2.08;;
79526;SDS011;68974;47.754;-3.364;2023-08-07T07:56:05;4.70;;;2.45;;
79526;SDS011;68974;47.754;-3.364;2023-08-07T07:58:30;4.53;;;2.00;;
79526;SDS011;68974;47.754;-3.364;2023-08-07T08:00:56;5.07;;;2.33;;
79526;SDS011;68974;47.754;-3.364;2023-08-07T08:03:21;5.35;;;1.92;;
79526;SDS011;68974;47.754;-3.364;2023-08-07T08:08:15;4.97;;;2.25;;
79526;SDS011;68974;47.754;-3.364;2023-08-07T08:10:40;6.07;;;2.33;;
79526;SDS011;68974;47.754;-3.364;2023-08-07T08:13:08;4.45;;;2.80;;
79526;SDS011;68974;47.754;-3.364;2023-08-07T08:15:34;7.38;;;3.33;;
79526;SDS011;68974;47.754;-3.364;2023-08-07T08:17:59;5.10;;;2.60;;
79526;SDS011;68974;47.754;-3.364;2023-08-07T08:20:25;9.77;;;2.70;;
79526;SDS011;68974;47.754;-3.364;2023-08-07T08:22:50;3.75;;;1.77;;
79526;SDS011;68974;47.754;-3.364;2023-08-07T08:25:16;4.15;;;1.60;;
79526;SDS011;68974;47.754;-3.364;2023-08-07T08:27:43;3.85;;;1.60;;
79526;SDS011;68974;47.754;-3.364;2023-08-07T08:30:08;6.57;;;1.98;;
79526;SDS011;68974;47.754;-3.364;2023-08-07T08:32:34;6.57;;;2.63;;
79526;SDS011;68974;47.754;-3.364;2023-08-07T08:34:59;5.15;;;2.40;;
79526;SDS011;68974;47.754;-3.364;2023-08-07T08:37:25;5.00;;;2.10;;
79526;SDS011;68974;47.754;-3.364;2023-08-07T08:39:51;4.38;;;1.85;;
79526;SDS011;68974;47.754;-3.364;2023-08-07T08:42:16;5.43;;;1.80;;
79526;SDS011;68974;47.754;-3.364;2023-08-07T08:44:46;4.80;;;2.08;;
79526;SDS011;68974;47.754;-3.364;2023-08-07T08:47:16;7.70;;;3.33;;
79526;SDS011;68974;47.754;-3.364;2023-08-07T08:49:56;3.88;;;2.10;;
79526;SDS011;68974;47.754;-3.364;2023-08-07T08:52:31;4.45;;;1.80;;
79526;SDS011;68974;47.754;-3.364;2023-08-07T08:54:57;5.05;;;1.95;;
79526;SDS011;68974;47.754;-3.364;2023-08-07T08:57:24;5.25;;;2.38;;
79526;SDS011;68974;47.754;-3.364;2023-08-07T08:59:51;5.30;;;2.33;;
79526;SDS011;68974;47.754;-3.364;2023-08-07T09:02:17;7.07;;;2.55;;
79526;SDS011;68974;47.754;-3.364;2023-08-07T09:04:43;4.10;;;2.40;;
79526;SDS011;68974;47.754;-3.364;2023-08-07T09:07:09;6.40;;;2.30;;
79526;SDS011;68974;47.754;-3.364;2023-08-07T09:09:35;3.45;;;1.73;;
79526;SDS011;68974;47.754;-3.364;2023-08-07T09:12:01;4.05;;;2.15;;
79526;SDS011;68974;47.754;-3.364;2023-08-07T09:16:57;4.78;;;2.22;;
79526;SDS011;68974;47.754;-3.364;2023-08-07T09:19:24;5.68;;;2.20;;
79526;SDS011;68974;47.754;-3.364;2023-08-07T09:21:51;6.15;;;2.95;;
79526;SDS011;68974;47.754;-3.364;2023-08-07T09:24:16;6.43;;;2.47;;
79526;SDS011;68974;47.754;-3.364;2023-08-07T09:26:43;8.60;;;2.70;;
79526;SDS011;68974;47.754;-3.364;2023-08-07T09:29:09;5.90;;;2.70;;
79526;SDS011;68974;47.754;-3.364;2023-08-07T09:31:35;5.50;;;2.50;;
79526;SDS011;68974;47.754;-3.364;2023-08-07T09:34:02;6.85;;;3.17;;
79526;SDS011;68974;47.754;-3.364;2023-08-07T09:36:31;6.68;;;4.30;;
79526;SDS011;68974;47.754;-3.364;2023-08-07T09:39:01;6.60;;;3.20;;
79526;SDS011;68974;47.754;-3.364;2023-08-07T09:41:28;6.03;;;2.83;;
79526;SDS011;68974;47.754;-3.364;2023-08-07T09:43:55;17.13;;;2.95;;
79526;SDS011;68974;47.754;-3.364;2023-08-07T09:46:21;4.15;;;2.58;;
79526;SDS011;68974;47.754;-3.364;2023-08-07T09:48:47;6.82;;;2.33;;
79526;SDS011;68974;47.754;-3.364;2023-08-07T09:51:12;7.03;;;2.55;;
79526;SDS011;68974;47.754;-3.364;2023-08-07T09:53:38;3.40;;;2.33;;
79526;SDS011;68974;47.754;-3.364;2023-08-07T09:56:03;5.53;;;2.85;;
79526;SDS011;68974;47.754;-3.364;2023-08-07T09:58:29;4.28;;;2.88;;
79526;SDS011;68974;47.754;-3.364;2023-08-07T10:00:55;5.43;;;2.95;;
79526;SDS011;68974;47.754;-3.364;2023-08-07T10:03:24;5.03;;;2.85;;
79526;SDS011;68974;47.754;-3.364;2023-08-07T10:05:50;7.40;;;3.45;;
79526;SDS011;68974;47.754;-3.364;2023-08-07T10:08:16;4.40;;;2.78;;
79526;SDS011;68974;47.754;-3.364;2023-08-07T10:10:41;6.13;;;2.60;;
79526;SDS011;68974;47.754;-3.364;2023-08-07T10:13:08;4.85;;;2.72;;
79526;SDS011;68974;47.754;-3.364;2023-08-07T10:15:37;5.32;;;2.50;;
79526;SDS011;68974;47.754;-3.364;2023-08-07T10:18:05;5.05;;;2.47;;
79526;SDS011;68974;47.754;-3.364;2023-08-07T10:20:30;5.65;;;2.35;;
79526;SDS011;68974;47.754;-3.364;2023-08-07T10:22:58;7.80;;;3.22;;
79526;SDS011;68974;47.754;-3.364;2023-08-07T10:25:28;4.80;;;2.75;;
79526;SDS011;68974;47.754;-3.364;2023-08-07T10:27:55;4.40;;;3.00;;
79526;SDS011;68974;47.754;-3.364;2023-08-07T10:30:22;3.67;;;1.88;;
79526;SDS011;68974;47.754;-3.364;2023-08-07T10:32:49;4.10;;;2.15;;
79526;SDS011;68974;47.754;-3.364;2023-08-07T10:37:51;3.63;;;1.88;;
79526;SDS011;68974;47.754;-3.364;2023-08-07T10:40:18;7.25;;;2.13;;
79526;SDS011;68974;47.754;-3.364;2023-08-07T10:45:23;5.13;;;1.90;;
79526;SDS011;68974;47.754;-3.364;2023-08-07T10:50:32;4.30;;;2.30;;
79526;SDS011;68974;47.754;-3.364;2023-08-07T10:53:02;4.70;;;1.98;;
79526;SDS011;68974;47.754;-3.364;2023-08-07T10:55:46;4.13;;;1.95;;
79526;SDS011;68974;47.754;-3.364;2023-08-07T10:58:25;2.45;;;1.20;;
79526;SDS011;68974;47.754;-3.364;2023-08-07T11:03:57;4.90;;;2.05;;
79526;SDS011;68974;47.754;-3.364;2023-08-07T11:06:28;3.88;;;1.58;;
79526;SDS011;68974;47.754;-3.364;2023-08-07T11:09:00;7.50;;;2.45;;
79526;SDS011;68974;47.754;-3.364;2023-08-07T11:11:29;4.43;;;2.05;;
79526;SDS011;68974;47.754;-3.364;2023-08-07T11:13:55;4.75;;;1.80;;
79526;SDS011;68974;47.754;-3.364;2023-08-07T11:16:20;4.95;;;1.63;;
79526;SDS011;68974;47.754;-3.364;2023-08-07T11:18:47;5.43;;;1.92;;
79526;SDS011;68974;47.754;-3.364;2023-08-07T11:21:13;4.15;;;1.98;;
79526;SDS011;68974;47.754;-3.364;2023-08-07T11:23:42;4.47;;;2.03;;
79526;SDS011;68974;47.754;-3.364;2023-08-07T11:26:09;2.38;;;1.60;;
79526;SDS011;68974;47.754;-3.364;2023-08-07T11:28:35;2.80;;;1.40;;
79526;SDS011;68974;47.754;-3.364;2023-08-07T11:31:00;3.95;;;1.63;;
79526;SDS011;68974;47.754;-3.364;2023-08-07T11:33:26;3.42;;;1.50;;
79526;SDS011;68974;47.754;-3.364;2023-08-07T11:35:53;3.55;;;1.58;;
79526;SDS011;68974;47.754;-3.364;2023-08-07T11:38:37;5.28;;;1.65;;
79526;SDS011;68974;47.754;-3.364;2023-08-07T11:41:03;3.17;;;1.73;;
79526;SDS011;68974;47.754;-3.364;2023-08-07T11:43:31;3.78;;;1.50;;
79526;SDS011;68974;47.754;-3.364;2023-08-07T11:45:57;2.20;;;1.65;;
79526;SDS011;68974;47.754;-3.364;2023-08-07T11:48:26;4.03;;;1.70;;
79526;SDS011;68974;47.754;-3.364;2023-08-07T11:50:53;2.85;;;1.30;;
79526;SDS011;68974;47.754;-3.364;2023-08-07T11:53:19;5.57;;;1.88;;
79526;SDS011;68974;47.754;-3.364;2023-08-07T11:55:51;3.58;;;1.70;;
79526;SDS011;68974;47.754;-3.364;2023-08-07T11:58:27;2.40;;;1.50;;
79526;SDS011;68974;47.754;-3.364;2023-08-07T12:00:58;4.68;;;1.90;;
79526;SDS011;68974;47.754;-3.364;2023-08-07T12:05:51;3.45;;;1.65;;
79526;SDS011;68974;47.754;-3.364;2023-08-07T12:08:17;4.68;;;1.70;;
79526;SDS011;68974;47.754;-3.364;2023-08-07T12:10:42;3.22;;;1.52;;
79526;SDS011;68974;47.754;-3.364;2023-08-07T12:13:08;3.38;;;1.60;;
79526;SDS011;68974;47.754;-3.364;2023-08-07T12:15:33;4.97;;;1.58;;
79526;SDS011;68974;47.754;-3.364;2023-08-07T12:18:02;3.38;;;1.58;;
79526;SDS011;68974;47.754;-3.364;2023-08-07T12:20:28;3.55;;;1.20;;
79526;SDS011;68974;47.754;-3.364;2023-08-07T12:22:53;1.55;;;1.23;;
79526;SDS011;68974;47.754;-3.364;2023-08-07T12:25:19;2.35;;;1.20;;
79526;SDS011;68974;47.754;-3.364;2023-08-07T12:27:45;1.77;;;0.77;;
79526;SDS011;68974;47.754;-3.364;2023-08-07T12:30:12;1.67;;;0.88;;
79526;SDS011;68974;47.754;-3.364;2023-08-07T12:32:38;2.05;;;1.00;;
79526;SDS011;68974;47.754;-3.364;2023-08-07T12:35:04;3.60;;;1.00;;
79526;SDS011;68974;47.754;-3.364;2023-08-07T12:37:33;1.50;;;1.17;;
79526;SDS011;68974;47.754;-3.364;2023-08-07T12:39:58;3.13;;;1.13;;
79526;SDS011;68974;47.754;-3.364;2023-08-07T12:42:24;2.00;;;1.10;;
79526;SDS011;68974;47.754;-3.364;2023-08-07T12:44:49;2.28;;;1.00;;
79526;SDS011;68974;47.754;-3.364;2023-08-07T12:47:15;2.20;;;1.08;;
79526;SDS011;68974;47.754;-3.364;2023-08-07T12:49:40;2.08;;;0.93;;
79526;SDS011;68974;47.754;-3.364;2023-08-07T12:52:06;1.88;;;0.70;;
79526;SDS011;68974;47.754;-3.364;2023-08-07T12:54:32;2.67;;;1.45;;
79526;SDS011;68974;47.754;-3.364;2023-08-07T12:56:57;2.97;;;1.13;;
79526;SDS011;68974;47.754;-3.364;2023-08-07T12:59:23;1.95;;;0.82;;
79526;SDS011;68974;47.754;-3.364;2023-08-07T13:01:48;1.23;;;0.75;;
79526;SDS011;68974;47.754;-3.364;2023-08-07T13:04:13;1.25;;;0.90;;
79526;SDS011;68974;47.754;-3.364;2023-08-07T13:06:40;2.80;;;1.17;;
79526;SDS011;68974;47.754;-3.364;2023-08-07T13:09:06;1.45;;;0.90;;
79526;SDS011;68974;47.754;-3.364;2023-08-07T13:11:32;3.13;;;0.80;;
79526;SDS011;68974;47.754;-3.364;2023-08-07T13:13:57;3.15;;;0.80;;
79526;SDS011;68974;47.754;-3.364;2023-08-07T13:16:23;1.60;;;0.88;;
79526;SDS011;68974;47.754;-3.364;2023-08-07T13:18:49;2.13;;;0.80;;
79526;SDS011;68974;47.754;-3.364;2023-08-07T13:21:14;3.03;;;0.88;;
79526;SDS011;68974;47.754;-3.364;2023-08-07T13:23:40;1.63;;;0.80;;
79526;SDS011;68974;47.754;-3.364;2023-08-07T13:26:05;1.58;;;0.90;;
79526;SDS011;68974;47.754;-3.364;2023-08-07T13:28:30;2.25;;;0.85;;
79526;SDS011;68974;47.754;-3.364;2023-08-07T13:30:56;2.83;;;0.88;;
79526;SDS011;68974;47.754;-3.364;2023-08-07T13:33:23;3.33;;;1.10;;
79526;SDS011;68974;47.754;-3.364;2023-08-07T13:35:48;2.30;;;0.95;;
79526;SDS011;68974;47.754;-3.364;2023-08-07T13:38:14;1.17;;;0.80;;
79526;SDS011;68974;47.754;-3.364;2023-08-07T13:40:40;2.80;;;1.00;;
79526;SDS011;68974;47.754;-3.364;2023-08-07T13:43:06;2.38;;;1.00;;
79526;SDS011;68974;47.754;-3.364;2023-08-07T13:45:34;1.75;;;0.77;;
79526;SDS011;68974;47.754;-3.364;2023-08-07T13:48:00;2.38;;;0.90;;
79526;SDS011;68974;47.754;-3.364;2023-08-07T13:50:28;3.05;;;1.17;;
79526;SDS011;68974;47.754;-3.364;2023-08-07T13:52:53;1.60;;;0.98;;
79526;SDS011;68974;47.754;-3.364;2023-08-07T13:55:19;3.38;;;1.10;;
79526;SDS011;68974;47.754;-3.364;2023-08-07T13:57:44;1.98;;;0.80;;
79526;SDS011;68974;47.754;-3.364;2023-08-07T14:00:10;1.42;;;0.90;;
79526;SDS011;68974;47.754;-3.364;2023-08-07T14:02:36;2.42;;;0.65;;
79526;SDS011;68974;47.754;-3.364;2023-08-07T14:05:01;1.73;;;0.80;;
79526;SDS011;68974;47.754;-3.364;2023-08-07T14:07:27;2.42;;;0.90;;
79526;SDS011;68974;47.754;-3.364;2023-08-07T14:09:53;1.38;;;0.65;;
79526;SDS011;68974;47.754;-3.364;2023-08-07T14:12:18;2.63;;;1.00;;
79526;SDS011;68974;47.754;-3.364;2023-08-07T14:14:45;3.88;;;1.08;;
79526;SDS011;68974;47.754;-3.364;2023-08-07T14:17:10;2.25;;;0.80;;
79526;SDS011;68974;47.754;-3.364;2023-08-07T14:19:35;2.08;;;0.70;;
79526;SDS011;68974;47.754;-3.364;2023-08-07T14:22:01;2.30;;;0.77;;
79526;SDS011;68974;47.754;-3.364;2023-08-07T14:24:26;2.80;;;0.82;;
79526;SDS011;68974;47.754;-3.364;2023-08-07T14:26:52;2.47;;;1.25;;
79526;SDS011;68974;47.754;-3.364;2023-08-07T14:29:17;1.60;;;0.70;;
79526;SDS011;68974;47.754;-3.364;2023-08-07T14:31:42;2.60;;;0.80;;
79526;SDS011;68974;47.754;-3.364;2023-08-07T14:34:08;1.88;;;0.90;;
79526;SDS011;68974;47.754;-3.364;2023-08-07T14:36:33;2.50;;;0.80;;
79526;SDS011;68974;47.754;-3.364;2023-08-07T14:38:59;2.85;;;0.80;;
79526;SDS011;68974;47.754;-3.364;2023-08-07T14:41:24;2.00;;;0.90;;
79526;SDS011;68974;47.754;-3.364;2023-08-07T14:43:49;2.95;;;0.80;;
79526;SDS011;68974;47.754;-3.364;2023-08-07T14:46:16;2.10;;;1.20;;
79526;SDS011;68974;47.754;-3.364;2023-08-07T14:48:42;2.42;;;1.00;;
79526;SDS011;68974;47.754;-3.364;2023-08-07T14:51:08;2.22;;;1.00;;
79526;SDS011;68974;47.754;-3.364;2023-08-07T14:53:33;1.55;;;0.70;;